sensor_id;sensor_type;location;lat;lon;timestamp;temperature;humidity
2603;DHT22;1311;47.966;7.958;2023-07-13T00:00:03;20.80;99.90
2603;DHT22;1311;47.966;7.958;2023-07-13T00:02:34;20.80;99.90
2603;DHT22;1311;47.966;7.958;2023-07-13T00:07:28;20.80;99.90
2603;DHT22;1311;47.966;7.958;2023-07-13T00:09:54;20.80;99.90
2603;DHT22;1311;47.966;7.958;2023-07-13T00:12:26;20.80;99.90
2603;DHT22;1311;47.966;7.958;2023-07-13T00:14:55;20.80;99.90
2603;DHT22;1311;47.966;7.958;2023-07-13T00:17:24;20.80;99.90
2603;DHT22;1311;47.966;7.958;2023-07-13T00:19:51;20.80;99.90
2603;DHT22;1311;47.966;7.958;2023-07-13T00:22:18;20.70;99.90
2603;DHT22;1311;47.966;7.958;2023-07-13T00:24:45;20.80;99.90
2603;DHT22;1311;47.966;7.958;2023-07-13T00:27:12;20.80;99.90
2603;DHT22;1311;47.966;7.958;2023-07-13T00:29:39;20.80;99.90
2603;DHT22;1311;47.966;7.958;2023-07-13T00:32:07;20.70;99.90
2603;DHT22;1311;47.966;7.958;2023-07-13T00:34:36;20.70;99.90
2603;DHT22;1311;47.966;7.958;2023-07-13T00:37:04;20.70;99.90
2603;DHT22;1311;47.966;7.958;2023-07-13T00:39:32;20.70;99.90
2603;DHT22;1311;47.966;7.958;2023-07-13T00:41:58;20.70;99.90
2603;DHT22;1311;47.966;7.958;2023-07-13T00:44:26;20.70;99.90
2603;DHT22;1311;47.966;7.958;2023-07-13T00:46:52;20.70;99.90
2603;DHT22;1311;47.966;7.958;2023-07-13T00:49:24;20.60;99.90
2603;DHT22;1311;47.966;7.958;2023-07-13T00:51:55;20.60;99.90
2603;DHT22;1311;47.966;7.958;2023-07-13T00:54:26;20.60;99.90
2603;DHT22;1311;47.966;7.958;2023-07-13T00:56:57;20.60;99.90
2603;DHT22;1311;47.966;7.958;2023-07-13T00:59:24;20.60;99.90
2603;DHT22;1311;47.966;7.958;2023-07-13T01:01:51;20.60;99.90
2603;DHT22;1311;47.966;7.958;2023-07-13T01:04:18;20.60;99.90
2603;DHT22;1311;47.966;7.958;2023-07-13T01:06:45;20.50;99.90
2603;DHT22;1311;47.966;7.958;2023-07-13T01:09:15;20.50;99.90
2603;DHT22;1311;47.966;7.958;2023-07-13T01:11:43;20.40;99.90
2603;DHT22;1311;47.966;7.958;2023-07-13T01:14:10;20.40;99.90
2603;DHT22;1311;47.966;7.958;2023-07-13T01:16:39;20.30;99.90
2603;DHT22;1311;47.966;7.958;2023-07-13T01:19:13;20.30;99.90
2603;DHT22;1311;47.966;7.958;2023-07-13T01:21:50;20.20;99.90
2603;DHT22;1311;47.966;7.958;2023-07-13T01:24:17;20.20;99.90
2603;DHT22;1311;47.966;7.958;2023-07-13T01:26:44;20.10;99.90
2603;DHT22;1311;47.966;7.958;2023-07-13T01:29:10;20.10;99.90
2603;DHT22;1311;47.966;7.958;2023-07-13T01:31:37;20.00;99.90
2603;DHT22;1311;47.966;7.958;2023-07-13T01:34:04;19.80;99.90
2603;DHT22;1311;47.966;7.958;2023-07-13T01:36:31;19.70;99.90
2603;DHT22;1311;47.966;7.958;2023-07-13T01:38:59;19.70;99.90
2603;DHT22;1311;47.966;7.958;2023-07-13T01:41:26;19.60;99.90
2603;DHT22;1311;47.966;7.958;2023-07-13T01:43:52;19.50;99.90
2603;DHT22;1311;47.966;7.958;2023-07-13T01:46:19;19.50;99.90
2603;DHT22;1311;47.966;7.958;2023-07-13T01:48:46;19.40;99.90
2603;DHT22;1311;47.966;7.958;2023-07-13T01:51:12;19.30;99.90
2603;DHT22;1311;47.966;7.958;2023-07-13T01:53:39;19.30;99.90
2603;DHT22;1311;47.966;7.958;2023-07-13T01:56:07;19.30;99.90
2603;DHT22;1311;47.966;7.958;2023-07-13T01:58:34;19.20;99.90
2603;DHT22;1311;47.966;7.958;2023-07-13T02:01:01;19.20;99.90
2603;DHT22;1311;47.966;7.958;2023-07-13T02:03:27;19.20;99.90
2603;DHT22;1311;47.966;7.958;2023-07-13T02:05:54;19.20;99.90
2603;DHT22;1311;47.966;7.958;2023-07-13T02:08:21;19.10;99.90
2603;DHT22;1311;47.966;7.958;2023-07-13T02:10:47;19.10;99.90
2603;DHT22;1311;47.966;7.958;2023-07-13T02:13:16;19.00;99.90
2603;DHT22;1311;47.966;7.958;2023-07-13T02:15:42;19.00;99.90
2603;DHT22;1311;47.966;7.958;2023-07-13T02:18:09;19.00;99.90
2603;DHT22;1311;47.966;7.958;2023-07-13T02:20:36;19.00;99.90
2603;DHT22;1311;47.966;7.958;2023-07-13T02:23:02;19.00;99.90
2603;DHT22;1311;47.966;7.958;2023-07-13T02:25:29;19.00;99.90
2603;DHT22;1311;47.966;7.958;2023-07-13T02:27:56;18.90;99.90
2603;DHT22;1311;47.966;7.958;2023-07-13T02:30:24;18.80;99.90
2603;DHT22;1311;47.966;7.958;2023-07-13T02:32:51;18.70;99.90
2603;DHT22;1311;47.966;7.958;2023-07-13T02:35:18;18.60;99.90
2603;DHT22;1311;47.966;7.958;2023-07-13T02:37:45;18.70;99.90
2603;DHT22;1311;47.966;7.958;2023-07-13T02:40:11;18.50;99.90
2603;DHT22;1311;47.966;7.958;2023-07-13T02:42:38;18.50;99.90
2603;DHT22;1311;47.966;7.958;2023-07-13T02:45:06;18.40;99.90
2603;DHT22;1311;47.966;7.958;2023-07-13T02:47:34;18.40;99.90
2603;DHT22;1311;47.966;7.958;2023-07-13T02:50:01;18.40;99.90
2603;DHT22;1311;47.966;7.958;2023-07-13T02:52:28;18.40;99.90
2603;DHT22;1311;47.966;7.958;2023-07-13T02:54:55;18.40;99.90
2603;DHT22;1311;47.966;7.958;2023-07-13T02:57:22;18.40;99.90
2603;DHT22;1311;47.966;7.958;2023-07-13T02:59:48;18.40;99.90
2603;DHT22;1311;47.966;7.958;2023-07-13T03:02:15;18.30;99.90
2603;DHT22;1311;47.966;7.958;2023-07-13T03:04:44;18.40;99.90
2603;DHT22;1311;47.966;7.958;2023-07-13T03:07:11;18.40;99.90
2603;DHT22;1311;47.966;7.958;2023-07-13T03:09:39;18.40;99.90
2603;DHT22;1311;47.966;7.958;2023-07-13T03:12:07;18.40;99.90
2603;DHT22;1311;47.966;7.958;2023-07-13T03:14:34;18.40;99.90
2603;DHT22;1311;47.966;7.958;2023-07-13T03:17:00;18.20;99.90
2603;DHT22;1311;47.966;7.958;2023-07-13T03:19:27;18.30;99.90
2603;DHT22;1311;47.966;7.958;2023-07-13T03:21:55;18.30;99.90
2603;DHT22;1311;47.966;7.958;2023-07-13T03:24:22;18.20;99.90
2603;DHT22;1311;47.966;7.958;2023-07-13T03:26:51;18.10;99.90
2603;DHT22;1311;47.966;7.958;2023-07-13T03:29:18;18.20;99.90
2603;DHT22;1311;47.966;7.958;2023-07-13T03:31:44;18.20;99.90
2603;DHT22;1311;47.966;7.958;2023-07-13T03:34:11;18.10;99.90
2603;DHT22;1311;47.966;7.958;2023-07-13T03:36:38;18.00;99.90
2603;DHT22;1311;47.966;7.958;2023-07-13T03:39:06;18.10;99.90
2603;DHT22;1311;47.966;7.958;2023-07-13T03:41:33;18.10;99.90
2603;DHT22;1311;47.966;7.958;2023-07-13T03:44:00;18.10;99.90
2603;DHT22;1311;47.966;7.958;2023-07-13T03:46:27;18.10;99.90
2603;DHT22;1311;47.966;7.958;2023-07-13T03:48:54;18.10;99.90
2603;DHT22;1311;47.966;7.958;2023-07-13T03:51:21;18.00;99.90
2603;DHT22;1311;47.966;7.958;2023-07-13T03:53:48;18.00;99.90
2603;DHT22;1311;47.966;7.958;2023-07-13T03:56:17;18.10;99.90
2603;DHT22;1311;47.966;7.958;2023-07-13T03:58:46;18.20;99.90
2603;DHT22;1311;47.966;7.958;2023-07-13T04:01:15;18.20;99.90
2603;DHT22;1311;47.966;7.958;2023-07-13T04:03:43;18.10;99.90
2603;DHT22;1311;47.966;7.958;2023-07-13T04:06:15;18.00;99.90
2603;DHT22;1311;47.966;7.958;2023-07-13T04:08:47;18.00;99.90
2603;DHT22;1311;47.966;7.958;2023-07-13T04:11:15;18.10;99.90
2603;DHT22;1311;47.966;7.958;2023-07-13T04:13:42;18.00;99.90
2603;DHT22;1311;47.966;7.958;2023-07-13T04:16:09;18.00;99.90
2603;DHT22;1311;47.966;7.958;2023-07-13T04:18:36;18.10;99.90
2603;DHT22;1311;47.966;7.958;2023-07-13T04:21:03;18.20;99.90
2603;DHT22;1311;47.966;7.958;2023-07-13T04:23:29;18.20;99.90
2603;DHT22;1311;47.966;7.958;2023-07-13T04:25:56;18.10;99.90
2603;DHT22;1311;47.966;7.958;2023-07-13T04:28:25;18.40;99.90
2603;DHT22;1311;47.966;7.958;2023-07-13T04:30:52;18.50;99.90
2603;DHT22;1311;47.966;7.958;2023-07-13T04:33:19;18.50;99.90
2603;DHT22;1311;47.966;7.958;2023-07-13T04:35:48;18.40;99.90
2603;DHT22;1311;47.966;7.958;2023-07-13T04:38:15;18.50;99.90
2603;DHT22;1311;47.966;7.958;2023-07-13T04:40:42;18.80;99.90
2603;DHT22;1311;47.966;7.958;2023-07-13T04:43:09;19.10;99.90
2603;DHT22;1311;47.966;7.958;2023-07-13T04:45:37;19.00;99.90
2603;DHT22;1311;47.966;7.958;2023-07-13T04:48:04;18.90;99.90
2603;DHT22;1311;47.966;7.958;2023-07-13T04:50:31;18.80;99.90
2603;DHT22;1311;47.966;7.958;2023-07-13T04:52:58;18.70;99.90
2603;DHT22;1311;47.966;7.958;2023-07-13T04:55:25;18.80;99.90
2603;DHT22;1311;47.966;7.958;2023-07-13T04:57:56;18.90;99.90
2603;DHT22;1311;47.966;7.958;2023-07-13T05:00:24;19.10;99.90
2603;DHT22;1311;47.966;7.958;2023-07-13T05:02:53;19.30;99.90
2603;DHT22;1311;47.966;7.958;2023-07-13T05:05:20;19.20;99.90
2603;DHT22;1311;47.966;7.958;2023-07-13T05:07:46;19.50;99.90
2603;DHT22;1311;47.966;7.958;2023-07-13T05:10:13;21.80;99.90
2603;DHT22;1311;47.966;7.958;2023-07-13T05:12:40;21.70;99.90
2603;DHT22;1311;47.966;7.958;2023-07-13T05:15:07;21.70;90.30
2603;DHT22;1311;47.966;7.958;2023-07-13T05:17:34;21.50;58.90
2603;DHT22;1311;47.966;7.958;2023-07-13T05:20:02;21.90;50.10
2603;DHT22;1311;47.966;7.958;2023-07-13T05:22:29;22.60;1.00
2603;DHT22;1311;47.966;7.958;2023-07-13T05:24:56;22.30;1.00
2603;DHT22;1311;47.966;7.958;2023-07-13T05:27:23;21.50;1.00
2603;DHT22;1311;47.966;7.958;2023-07-13T05:29:49;21.10;1.00
2603;DHT22;1311;47.966;7.958;2023-07-13T05:32:17;20.90;32.30
2603;DHT22;1311;47.966;7.958;2023-07-13T05:34:44;20.90;71.00
2603;DHT22;1311;47.966;7.958;2023-07-13T05:37:12;21.10;78.60
2603;DHT22;1311;47.966;7.958;2023-07-13T05:39:39;21.40;47.30
2603;DHT22;1311;47.966;7.958;2023-07-13T05:42:06;24.30;88.40
2603;DHT22;1311;47.966;7.958;2023-07-13T05:44:33;24.90;1.00
2603;DHT22;1311;47.966;7.958;2023-07-13T05:47:00;23.40;99.90
2603;DHT22;1311;47.966;7.958;2023-07-13T05:49:26;24.10;99.90
2603;DHT22;1311;47.966;7.958;2023-07-13T05:51:53;23.80;1.00
2603;DHT22;1311;47.966;7.958;2023-07-13T05:54:21;24.30;99.90
2603;DHT22;1311;47.966;7.958;2023-07-13T05:56:48;23.60;1.00
2603;DHT22;1311;47.966;7.958;2023-07-13T05:59:14;25.50;1.00
2603;DHT22;1311;47.966;7.958;2023-07-13T06:01:41;29.00;99.90
2603;DHT22;1311;47.966;7.958;2023-07-13T06:04:08;30.50;1.00
2603;DHT22;1311;47.966;7.958;2023-07-13T06:06:35;27.60;1.00
2603;DHT22;1311;47.966;7.958;2023-07-13T06:09:02;29.20;1.00
2603;DHT22;1311;47.966;7.958;2023-07-13T06:11:30;29.50;1.00
2603;DHT22;1311;47.966;7.958;2023-07-13T06:13:57;30.30;1.00
2603;DHT22;1311;47.966;7.958;2023-07-13T06:16:24;29.90;99.90
2603;DHT22;1311;47.966;7.958;2023-07-13T06:18:51;29.20;99.90
2603;DHT22;1311;47.966;7.958;2023-07-13T06:21:19;27.90;99.90
2603;DHT22;1311;47.966;7.958;2023-07-13T06:23:48;27.60;99.90
2603;DHT22;1311;47.966;7.958;2023-07-13T06:26:16;26.50;99.90
2603;DHT22;1311;47.966;7.958;2023-07-13T06:28:45;26.20;1.00
2603;DHT22;1311;47.966;7.958;2023-07-13T06:31:12;26.00;1.00
2603;DHT22;1311;47.966;7.958;2023-07-13T06:33:39;25.50;1.00
2603;DHT22;1311;47.966;7.958;2023-07-13T06:36:07;25.50;1.00
2603;DHT22;1311;47.966;7.958;2023-07-13T06:38:35;25.20;1.00
2603;DHT22;1311;47.966;7.958;2023-07-13T06:41:02;25.00;1.00
2603;DHT22;1311;47.966;7.958;2023-07-13T06:43:28;24.70;1.00
2603;DHT22;1311;47.966;7.958;2023-07-13T06:45:58;24.60;1.00
2603;DHT22;1311;47.966;7.958;2023-07-13T06:48:25;24.50;1.00
2603;DHT22;1311;47.966;7.958;2023-07-13T06:50:52;24.50;1.00
2603;DHT22;1311;47.966;7.958;2023-07-13T06:53:19;24.30;1.00
2603;DHT22;1311;47.966;7.958;2023-07-13T06:55:47;24.20;1.00
2603;DHT22;1311;47.966;7.958;2023-07-13T06:58:15;24.10;1.00
2603;DHT22;1311;47.966;7.958;2023-07-13T07:00:42;24.00;1.00
2603;DHT22;1311;47.966;7.958;2023-07-13T07:03:10;23.90;1.00
2603;DHT22;1311;47.966;7.958;2023-07-13T07:05:37;24.00;1.00
2603;DHT22;1311;47.966;7.958;2023-07-13T07:08:04;24.00;1.00
2603;DHT22;1311;47.966;7.958;2023-07-13T07:10:31;23.90;1.00
2603;DHT22;1311;47.966;7.958;2023-07-13T07:12:58;23.90;1.00
2603;DHT22;1311;47.966;7.958;2023-07-13T07:15:25;23.90;1.00
2603;DHT22;1311;47.966;7.958;2023-07-13T07:17:52;23.90;1.00
2603;DHT22;1311;47.966;7.958;2023-07-13T07:20:20;23.80;1.00
2603;DHT22;1311;47.966;7.958;2023-07-13T07:22:47;23.80;1.00
2603;DHT22;1311;47.966;7.958;2023-07-13T07:25:13;23.80;1.00
2603;DHT22;1311;47.966;7.958;2023-07-13T07:27:40;23.70;1.00
2603;DHT22;1311;47.966;7.958;2023-07-13T07:30:08;23.80;1.00
2603;DHT22;1311;47.966;7.958;2023-07-13T07:32:34;23.70;1.00
2603;DHT22;1311;47.966;7.958;2023-07-13T07:35:01;23.60;1.00
2603;DHT22;1311;47.966;7.958;2023-07-13T07:37:29;23.50;1.00
2603;DHT22;1311;47.966;7.958;2023-07-13T07:39:56;23.70;1.00
2603;DHT22;1311;47.966;7.958;2023-07-13T07:42:23;23.70;1.00
2603;DHT22;1311;47.966;7.958;2023-07-13T07:44:49;23.70;99.90
2603;DHT22;1311;47.966;7.958;2023-07-13T07:47:16;23.80;99.90
2603;DHT22;1311;47.966;7.958;2023-07-13T07:49:43;23.90;99.90
2603;DHT22;1311;47.966;7.958;2023-07-13T07:52:09;23.90;99.90
2603;DHT22;1311;47.966;7.958;2023-07-13T07:54:38;23.80;99.90
2603;DHT22;1311;47.966;7.958;2023-07-13T07:57:06;23.90;99.90
2603;DHT22;1311;47.966;7.958;2023-07-13T07:59:33;23.90;99.90
2603;DHT22;1311;47.966;7.958;2023-07-13T08:02:00;23.90;99.90
2603;DHT22;1311;47.966;7.958;2023-07-13T08:04:28;24.10;99.90
2603;DHT22;1311;47.966;7.958;2023-07-13T08:06:55;24.30;99.90
2603;DHT22;1311;47.966;7.958;2023-07-13T08:09:22;24.20;99.90
2603;DHT22;1311;47.966;7.958;2023-07-13T08:11:50;24.20;99.90
2603;DHT22;1311;47.966;7.958;2023-07-13T08:14:17;24.10;99.90
2603;DHT22;1311;47.966;7.958;2023-07-13T08:16:44;24.20;99.90
2603;DHT22;1311;47.966;7.958;2023-07-13T08:19:11;24.20;99.90
2603;DHT22;1311;47.966;7.958;2023-07-13T08:21:38;24.30;99.90
2603;DHT22;1311;47.966;7.958;2023-07-13T08:24:04;24.40;99.90
2603;DHT22;1311;47.966;7.958;2023-07-13T08:26:31;24.50;99.90
2603;DHT22;1311;47.966;7.958;2023-07-13T08:28:59;24.50;99.90
2603;DHT22;1311;47.966;7.958;2023-07-13T08:31:26;24.50;99.90
2603;DHT22;1311;47.966;7.958;2023-07-13T08:33:53;24.50;99.90
2603;DHT22;1311;47.966;7.958;2023-07-13T08:36:20;24.70;99.90
2603;DHT22;1311;47.966;7.958;2023-07-13T08:38:46;24.90;99.90
2603;DHT22;1311;47.966;7.958;2023-07-13T08:41:15;24.80;99.90
2603;DHT22;1311;47.966;7.958;2023-07-13T08:43:46;24.80;99.90
2603;DHT22;1311;47.966;7.958;2023-07-13T08:46:19;25.00;99.90
2603;DHT22;1311;47.966;7.958;2023-07-13T08:48:50;24.90;99.90
2603;DHT22;1311;47.966;7.958;2023-07-13T08:51:29;24.60;99.90
2603;DHT22;1311;47.966;7.958;2023-07-13T08:53:58;24.60;99.90
2603;DHT22;1311;47.966;7.958;2023-07-13T08:56:28;24.20;99.90
2603;DHT22;1311;47.966;7.958;2023-07-13T08:58:57;24.40;99.90
2603;DHT22;1311;47.966;7.958;2023-07-13T09:01:31;24.40;99.90
2603;DHT22;1311;47.966;7.958;2023-07-13T09:04:05;24.40;99.90
2603;DHT22;1311;47.966;7.958;2023-07-13T09:06:39;24.10;99.90
2603;DHT22;1311;47.966;7.958;2023-07-13T09:09:20;24.10;99.90
2603;DHT22;1311;47.966;7.958;2023-07-13T09:11:54;24.20;99.90
2603;DHT22;1311;47.966;7.958;2023-07-13T09:14:42;24.30;99.90
2603;DHT22;1311;47.966;7.958;2023-07-13T09:17:16;24.30;99.90
2603;DHT22;1311;47.966;7.958;2023-07-13T09:19:43;24.50;99.90
2603;DHT22;1311;47.966;7.958;2023-07-13T09:22:16;24.50;99.90
2603;DHT22;1311;47.966;7.958;2023-07-13T09:24:55;24.70;99.90
2603;DHT22;1311;47.966;7.958;2023-07-13T09:27:37;24.80;99.90
2603;DHT22;1311;47.966;7.958;2023-07-13T09:30:21;24.70;99.90
2603;DHT22;1311;47.966;7.958;2023-07-13T09:32:53;24.50;99.90
2603;DHT22;1311;47.966;7.958;2023-07-13T09:35:24;25.10;99.90
2603;DHT22;1311;47.966;7.958;2023-07-13T09:37:58;25.20;99.90
2603;DHT22;1311;47.966;7.958;2023-07-13T09:40:30;25.40;99.90
2603;DHT22;1311;47.966;7.958;2023-07-13T09:42:59;25.40;99.90
2603;DHT22;1311;47.966;7.958;2023-07-13T09:45:30;25.40;99.90
2603;DHT22;1311;47.966;7.958;2023-07-13T09:48:04;25.40;99.90
2603;DHT22;1311;47.966;7.958;2023-07-13T09:50:31;25.30;99.90
2603;DHT22;1311;47.966;7.958;2023-07-13T09:52:58;25.40;99.90
2603;DHT22;1311;47.966;7.958;2023-07-13T09:55:30;25.20;99.90
2603;DHT22;1311;47.966;7.958;2023-07-13T09:57:57;25.00;99.90
2603;DHT22;1311;47.966;7.958;2023-07-13T10:00:26;24.70;99.90
2603;DHT22;1311;47.966;7.958;2023-07-13T10:03:04;24.50;99.90
2603;DHT22;1311;47.966;7.958;2023-07-13T10:05:38;24.70;99.90
2603;DHT22;1311;47.966;7.958;2023-07-13T10:08:05;24.40;99.90
2603;DHT22;1311;47.966;7.958;2023-07-13T10:10:33;24.20;99.90
2603;DHT22;1311;47.966;7.958;2023-07-13T10:13:01;24.50;99.90
2603;DHT22;1311;47.966;7.958;2023-07-13T10:15:30;24.50;99.90
2603;DHT22;1311;47.966;7.958;2023-07-13T10:17:58;24.70;99.90
2603;DHT22;1311;47.966;7.958;2023-07-13T10:20:27;25.10;99.90
2603;DHT22;1311;47.966;7.958;2023-07-13T10:22:57;25.10;99.90
2603;DHT22;1311;47.966;7.958;2023-07-13T10:25:26;25.00;99.90
2603;DHT22;1311;47.966;7.958;2023-07-13T10:27:58;24.90;99.90
2603;DHT22;1311;47.966;7.958;2023-07-13T10:30:30;24.70;82.20
2603;DHT22;1311;47.966;7.958;2023-07-13T10:32:58;24.90;74.00
2603;DHT22;1311;47.966;7.958;2023-07-13T10:35:29;24.80;38.20
2603;DHT22;1311;47.966;7.958;2023-07-13T10:38:01;24.90;61.90
2603;DHT22;1311;47.966;7.958;2023-07-13T10:40:34;25.10;35.70
2603;DHT22;1311;47.966;7.958;2023-07-13T10:43:06;25.00;33.10
2603;DHT22;1311;47.966;7.958;2023-07-13T10:45:36;24.90;58.30
2603;DHT22;1311;47.966;7.958;2023-07-13T10:48:04;25.10;53.40
2603;DHT22;1311;47.966;7.958;2023-07-13T10:50:44;25.00;20.40
2603;DHT22;1311;47.966;7.958;2023-07-13T10:53:20;25.20;33.30
2603;DHT22;1311;47.966;7.958;2023-07-13T10:55:57;25.40;46.80
2603;DHT22;1311;47.966;7.958;2023-07-13T10:58:29;25.70;32.60
2603;DHT22;1311;47.966;7.958;2023-07-13T11:01:06;25.40;1.00
2603;DHT22;1311;47.966;7.958;2023-07-13T11:03:36;25.70;1.00
2603;DHT22;1311;47.966;7.958;2023-07-13T11:06:13;25.60;1.00
2603;DHT22;1311;47.966;7.958;2023-07-13T11:08:52;25.70;1.00
2603;DHT22;1311;47.966;7.958;2023-07-13T11:11:37;25.90;1.00
2603;DHT22;1311;47.966;7.958;2023-07-13T11:14:09;25.80;1.00
2603;DHT22;1311;47.966;7.958;2023-07-13T11:16:51;25.70;1.00
2603;DHT22;1311;47.966;7.958;2023-07-13T11:19:27;25.70;1.00
2603;DHT22;1311;47.966;7.958;2023-07-13T11:22:21;25.50;1.00
2603;DHT22;1311;47.966;7.958;2023-07-13T11:25:00;25.90;1.00
2603;DHT22;1311;47.966;7.958;2023-07-13T11:27:41;25.80;1.00
2603;DHT22;1311;47.966;7.958;2023-07-13T11:30:31;26.10;1.00
2603;DHT22;1311;47.966;7.958;2023-07-13T11:33:12;26.10;1.00
2603;DHT22;1311;47.966;7.958;2023-07-13T11:35:45;26.40;1.00
2603;DHT22;1311;47.966;7.958;2023-07-13T11:38:17;26.40;1.00
2603;DHT22;1311;47.966;7.958;2023-07-13T11:40:46;26.30;1.00
2603;DHT22;1311;47.966;7.958;2023-07-13T11:43:14;26.40;1.00
2603;DHT22;1311;47.966;7.958;2023-07-13T11:45:41;25.90;1.00
2603;DHT22;1311;47.966;7.958;2023-07-13T11:48:23;26.00;1.00
2603;DHT22;1311;47.966;7.958;2023-07-13T11:50:53;26.00;1.00
2603;DHT22;1311;47.966;7.958;2023-07-13T11:53:22;25.90;1.00
2603;DHT22;1311;47.966;7.958;2023-07-13T11:55:50;25.90;1.00
2603;DHT22;1311;47.966;7.958;2023-07-13T11:58:21;25.70;1.00
2603;DHT22;1311;47.966;7.958;2023-07-13T12:00:49;25.80;1.00
2603;DHT22;1311;47.966;7.958;2023-07-13T12:03:21;25.90;1.00
2603;DHT22;1311;47.966;7.958;2023-07-13T12:05:57;26.10;1.00
2603;DHT22;1311;47.966;7.958;2023-07-13T12:08:25;26.40;1.00
2603;DHT22;1311;47.966;7.958;2023-07-13T12:11:02;26.40;1.00
2603;DHT22;1311;47.966;7.958;2023-07-13T12:13:36;26.40;1.00
2603;DHT22;1311;47.966;7.958;2023-07-13T12:16:11;26.10;1.00
2603;DHT22;1311;47.966;7.958;2023-07-13T12:18:39;26.50;1.00
2603;DHT22;1311;47.966;7.958;2023-07-13T12:21:12;26.50;1.00
2603;DHT22;1311;47.966;7.958;2023-07-13T12:23:43;26.90;1.00
2603;DHT22;1311;47.966;7.958;2023-07-13T12:26:11;26.70;1.00
2603;DHT22;1311;47.966;7.958;2023-07-13T12:28:45;27.10;1.00
2603;DHT22;1311;47.966;7.958;2023-07-13T12:31:25;27.30;1.00
2603;DHT22;1311;47.966;7.958;2023-07-13T12:34:00;27.50;1.00
2603;DHT22;1311;47.966;7.958;2023-07-13T12:36:33;28.00;1.00
2603;DHT22;1311;47.966;7.958;2023-07-13T12:39:12;28.40;1.00
2603;DHT22;1311;47.966;7.958;2023-07-13T12:41:40;28.60;1.00
2603;DHT22;1311;47.966;7.958;2023-07-13T12:44:11;28.40;1.00
2603;DHT22;1311;47.966;7.958;2023-07-13T12:46:38;28.50;1.00
2603;DHT22;1311;47.966;7.958;2023-07-13T12:49:07;28.70;1.00
2603;DHT22;1311;47.966;7.958;2023-07-13T12:51:33;28.90;1.00
2603;DHT22;1311;47.966;7.958;2023-07-13T12:54:13;29.20;1.00
2603;DHT22;1311;47.966;7.958;2023-07-13T12:56:42;29.10;1.00
2603;DHT22;1311;47.966;7.958;2023-07-13T12:59:16;28.70;1.00
2603;DHT22;1311;47.966;7.958;2023-07-13T13:01:45;29.00;1.00
2603;DHT22;1311;47.966;7.958;2023-07-13T13:04:12;29.40;1.00
2603;DHT22;1311;47.966;7.958;2023-07-13T13:06:39;29.20;1.00
2603;DHT22;1311;47.966;7.958;2023-07-13T13:09:12;28.70;1.00
2603;DHT22;1311;47.966;7.958;2023-07-13T13:11:40;28.60;1.00
2603;DHT22;1311;47.966;7.958;2023-07-13T13:14:07;28.30;1.00
2603;DHT22;1311;47.966;7.958;2023-07-13T13:16:45;28.10;1.00
2603;DHT22;1311;47.966;7.958;2023-07-13T13:19:14;28.70;1.00
2603;DHT22;1311;47.966;7.958;2023-07-13T13:21:43;29.20;1.00
2603;DHT22;1311;47.966;7.958;2023-07-13T13:24:14;29.50;1.00
2603;DHT22;1311;47.966;7.958;2023-07-13T13:26:41;29.50;1.00
2603;DHT22;1311;47.966;7.958;2023-07-13T13:29:12;29.40;1.00
2603;DHT22;1311;47.966;7.958;2023-07-13T13:31:40;29.50;1.00
2603;DHT22;1311;47.966;7.958;2023-07-13T13:34:09;29.60;1.00
2603;DHT22;1311;47.966;7.958;2023-07-13T13:36:36;29.30;1.00
2603;DHT22;1311;47.966;7.958;2023-07-13T13:39:14;29.10;1.00
2603;DHT22;1311;47.966;7.958;2023-07-13T13:41:43;29.10;1.00
2603;DHT22;1311;47.966;7.958;2023-07-13T13:44:10;29.00;1.00
2603;DHT22;1311;47.966;7.958;2023-07-13T13:46:37;29.00;1.00
2603;DHT22;1311;47.966;7.958;2023-07-13T13:49:04;29.30;1.00
2603;DHT22;1311;47.966;7.958;2023-07-13T13:51:32;29.30;1.00
2603;DHT22;1311;47.966;7.958;2023-07-13T13:53:59;29.60;1.00
2603;DHT22;1311;47.966;7.958;2023-07-13T13:56:28;29.50;1.00
2603;DHT22;1311;47.966;7.958;2023-07-13T13:58:55;28.90;1.00
2603;DHT22;1311;47.966;7.958;2023-07-13T14:01:22;29.30;1.00
2603;DHT22;1311;47.966;7.958;2023-07-13T14:03:50;29.50;1.00
2603;DHT22;1311;47.966;7.958;2023-07-13T14:06:18;29.80;1.00
2603;DHT22;1311;47.966;7.958;2023-07-13T14:08:44;29.40;1.00
2603;DHT22;1311;47.966;7.958;2023-07-13T14:11:14;29.70;1.00
2603;DHT22;1311;47.966;7.958;2023-07-13T14:13:44;29.40;1.00
2603;DHT22;1311;47.966;7.958;2023-07-13T14:16:15;29.00;1.00
2603;DHT22;1311;47.966;7.958;2023-07-13T14:18:43;28.40;1.00
2603;DHT22;1311;47.966;7.958;2023-07-13T14:21:13;28.40;1.00
2603;DHT22;1311;47.966;7.958;2023-07-13T14:23:40;28.20;1.00
2603;DHT22;1311;47.966;7.958;2023-07-13T14:26:12;28.30;1.00
2603;DHT22;1311;47.966;7.958;2023-07-13T14:28:44;28.10;1.00
2603;DHT22;1311;47.966;7.958;2023-07-13T14:31:12;28.10;1.00
2603;DHT22;1311;47.966;7.958;2023-07-13T14:33:39;28.00;1.00
2603;DHT22;1311;47.966;7.958;2023-07-13T14:36:21;27.90;1.00
2603;DHT22;1311;47.966;7.958;2023-07-13T14:38:50;27.70;1.00
2603;DHT22;1311;47.966;7.958;2023-07-13T14:41:16;27.50;1.00
2603;DHT22;1311;47.966;7.958;2023-07-13T14:43:44;27.30;1.00
2603;DHT22;1311;47.966;7.958;2023-07-13T14:46:22;27.40;1.00
2603;DHT22;1311;47.966;7.958;2023-07-13T14:48:50;27.30;1.00
2603;DHT22;1311;47.966;7.958;2023-07-13T14:51:17;27.20;1.00
2603;DHT22;1311;47.966;7.958;2023-07-13T14:53:43;27.00;1.00
2603;DHT22;1311;47.966;7.958;2023-07-13T14:56:11;27.00;1.00
2603;DHT22;1311;47.966;7.958;2023-07-13T14:58:38;26.90;1.00
2603;DHT22;1311;47.966;7.958;2023-07-13T15:01:11;26.90;1.00
2603;DHT22;1311;47.966;7.958;2023-07-13T15:03:42;26.80;1.00
2603;DHT22;1311;47.966;7.958;2023-07-13T15:06:11;26.60;1.00
2603;DHT22;1311;47.966;7.958;2023-07-13T15:08:38;26.40;1.00
2603;DHT22;1311;47.966;7.958;2023-07-13T15:11:06;26.30;1.00
2603;DHT22;1311;47.966;7.958;2023-07-13T15:13:33;25.60;1.00
2603;DHT22;1311;47.966;7.958;2023-07-13T15:16:00;25.40;1.00
2603;DHT22;1311;47.966;7.958;2023-07-13T15:18:28;25.20;1.00
2603;DHT22;1311;47.966;7.958;2023-07-13T15:20:55;25.20;1.00
2603;DHT22;1311;47.966;7.958;2023-07-13T15:23:25;25.40;1.00
2603;DHT22;1311;47.966;7.958;2023-07-13T15:25:52;25.30;1.00
2603;DHT22;1311;47.966;7.958;2023-07-13T15:28:19;25.40;1.00
2603;DHT22;1311;47.966;7.958;2023-07-13T15:30:48;25.70;1.00
2603;DHT22;1311;47.966;7.958;2023-07-13T15:33:19;25.70;1.00
2603;DHT22;1311;47.966;7.958;2023-07-13T15:35:47;25.40;1.00
2603;DHT22;1311;47.966;7.958;2023-07-13T15:38:16;25.30;1.00
2603;DHT22;1311;47.966;7.958;2023-07-13T15:40:43;25.00;1.00
2603;DHT22;1311;47.966;7.958;2023-07-13T15:43:11;25.00;1.00
2603;DHT22;1311;47.966;7.958;2023-07-13T15:45:38;24.80;1.00
2603;DHT22;1311;47.966;7.958;2023-07-13T15:48:17;24.80;1.00
2603;DHT22;1311;47.966;7.958;2023-07-13T15:50:47;25.00;1.00
2603;DHT22;1311;47.966;7.958;2023-07-13T15:53:16;25.00;1.00
2603;DHT22;1311;47.966;7.958;2023-07-13T15:55:45;25.10;1.00
2603;DHT22;1311;47.966;7.958;2023-07-13T15:58:12;25.20;1.00
2603;DHT22;1311;47.966;7.958;2023-07-13T16:00:40;25.20;1.00
2603;DHT22;1311;47.966;7.958;2023-07-13T16:03:08;25.20;1.00
2603;DHT22;1311;47.966;7.958;2023-07-13T16:05:35;25.30;1.00
2603;DHT22;1311;47.966;7.958;2023-07-13T16:08:05;25.50;1.00
2603;DHT22;1311;47.966;7.958;2023-07-13T16:10:35;25.60;1.00
2603;DHT22;1311;47.966;7.958;2023-07-13T16:13:09;25.70;1.00
2603;DHT22;1311;47.966;7.958;2023-07-13T16:15:40;25.70;1.00
2603;DHT22;1311;47.966;7.958;2023-07-13T16:18:10;25.80;1.00
2603;DHT22;1311;47.966;7.958;2023-07-13T16:20:37;25.90;1.00
2603;DHT22;1311;47.966;7.958;2023-07-13T16:23:05;26.10;1.00